sensor_id;sensor_type;location;lat;lon;timestamp;pressure;altitude;pressure_sealevel;temperature;humidity
15694;BME280;7947;48.834;9.132;2023-04-25T00:02:36;97584.28;;;10.10;74.31
15694;BME280;7947;48.834;9.132;2023-04-25T00:05:40;97584.53;;;10.13;74.89
15694;BME280;7947;48.834;9.132;2023-04-25T00:08:44;97583.38;;;10.19;74.85
15694;BME280;7947;48.834;9.132;2023-04-25T00:11:47;97587.59;;;10.25;74.23
15694;BME280;7947;48.834;9.132;2023-04-25T00:14:49;97586.88;;;10.20;74.30
15694;BME280;7947;48.834;9.132;2023-04-25T00:17:52;97581.84;;;10.13;74.59
15694;BME280;7947;48.834;9.132;2023-04-25T00:20:55;97571.63;;;10.15;75.40
15694;BME280;7947;48.834;9.132;2023-04-25T00:23:59;97577.72;;;10.21;75.46
15694;BME280;7947;48.834;9.132;2023-04-25T00:27:02;97581.44;;;10.25;74.84
15694;BME280;7947;48.834;9.132;2023-04-25T00:30:06;97582.53;;;10.24;74.26
15694;BME280;7947;48.834;9.132;2023-04-25T00:33:09;97591.94;;;10.21;74.77
15694;BME280;7947;48.834;9.132;2023-04-25T00:36:12;97585.03;;;10.15;75.06
15694;BME280;7947;48.834;9.132;2023-04-25T00:39:16;97571.44;;;10.07;74.85
15694;BME280;7947;48.834;9.132;2023-04-25T00:42:19;97561.00;;;10.05;74.71
15694;BME280;7947;48.834;9.132;2023-04-25T00:45:26;97563.91;;;10.14;73.78
15694;BME280;7947;48.834;9.132;2023-04-25T00:48:29;97563.28;;;10.22;73.38
15694;BME280;7947;48.834;9.132;2023-04-25T00:51:32;97557.28;;;10.30;72.46
15694;BME280;7947;48.834;9.132;2023-04-25T00:54:37;97561.22;;;10.37;71.95
15694;BME280;7947;48.834;9.132;2023-04-25T00:57:40;97558.44;;;10.42;71.61
15694;BME280;7947;48.834;9.132;2023-04-25T01:00:43;97546.94;;;10.42;71.05
15694;BME280;7947;48.834;9.132;2023-04-25T01:03:48;97555.09;;;10.32;72.17
15694;BME280;7947;48.834;9.132;2023-04-25T01:06:53;97545.75;;;10.29;72.48
15694;BME280;7947;48.834;9.132;2023-04-25T01:09:58;97547.84;;;10.32;72.81
15694;BME280;7947;48.834;9.132;2023-04-25T01:13:01;97545.63;;;10.39;73.84
15694;BME280;7947;48.834;9.132;2023-04-25T01:16:04;97542.72;;;10.36;74.13
15694;BME280;7947;48.834;9.132;2023-04-25T01:19:09;97548.66;;;10.33;74.01
15694;BME280;7947;48.834;9.132;2023-04-25T01:22:15;97551.97;;;10.25;74.84
15694;BME280;7947;48.834;9.132;2023-04-25T01:25:19;97542.16;;;10.15;74.42
15694;BME280;7947;48.834;9.132;2023-04-25T01:28:22;97540.84;;;10.13;74.57
15694;BME280;7947;48.834;9.132;2023-04-25T01:31:25;97529.06;;;10.09;73.78
15694;BME280;7947;48.834;9.132;2023-04-25T01:34:28;97527.75;;;10.11;74.48
15694;BME280;7947;48.834;9.132;2023-04-25T01:37:33;97530.47;;;10.06;74.66
15694;BME280;7947;48.834;9.132;2023-04-25T01:40:37;97529.44;;;10.02;74.65
15694;BME280;7947;48.834;9.132;2023-04-25T01:43:41;97535.59;;;10.02;74.87
15694;BME280;7947;48.834;9.132;2023-04-25T01:46:44;97540.19;;;9.97;74.47
15694;BME280;7947;48.834;9.132;2023-04-25T01:49:47;97540.19;;;9.97;74.34
15694;BME280;7947;48.834;9.132;2023-04-25T01:52:51;97543.44;;;9.94;74.86
15694;BME280;7947;48.834;9.132;2023-04-25T01:55:54;97541.06;;;9.92;74.15
15694;BME280;7947;48.834;9.132;2023-04-25T01:58:57;97542.34;;;9.95;74.29
15694;BME280;7947;48.834;9.132;2023-04-25T02:02:00;97538.53;;;10.01;74.75
15694;BME280;7947;48.834;9.132;2023-04-25T02:05:06;97539.63;;;10.00;73.88
15694;BME280;7947;48.834;9.132;2023-04-25T02:08:10;97543.38;;;9.99;73.88
15694;BME280;7947;48.834;9.132;2023-04-25T02:11:13;97534.31;;;9.95;74.28
15694;BME280;7947;48.834;9.132;2023-04-25T02:14:16;97539.75;;;9.90;74.52
15694;BME280;7947;48.834;9.132;2023-04-25T02:17:18;97530.66;;;9.91;74.64
15694;BME280;7947;48.834;9.132;2023-04-25T02:20:24;97523.84;;;9.98;75.12
15694;BME280;7947;48.834;9.132;2023-04-25T02:23:29;97525.97;;;10.01;74.94
15694;BME280;7947;48.834;9.132;2023-04-25T02:26:32;97525.72;;;9.98;75.83
15694;BME280;7947;48.834;9.132;2023-04-25T02:29:35;97530.25;;;10.02;76.26
15694;BME280;7947;48.834;9.132;2023-04-25T02:32:38;97530.13;;;9.89;76.15
15694;BME280;7947;48.834;9.132;2023-04-25T02:35:41;97531.00;;;9.79;76.88
15694;BME280;7947;48.834;9.132;2023-04-25T02:38:45;97525.72;;;9.74;76.82
15694;BME280;7947;48.834;9.132;2023-04-25T02:41:47;97516.09;;;9.73;77.35
15694;BME280;7947;48.834;9.132;2023-04-25T02:44:50;97519.34;;;9.70;77.33
15694;BME280;7947;48.834;9.132;2023-04-25T02:47:53;97506.75;;;9.71;77.95
15694;BME280;7947;48.834;9.132;2023-04-25T02:50:56;97512.00;;;9.81;78.15
15694;BME280;7947;48.834;9.132;2023-04-25T02:54:00;97512.56;;;9.78;77.82
15694;BME280;7947;48.834;9.132;2023-04-25T02:57:02;97521.59;;;9.87;78.00
15694;BME280;7947;48.834;9.132;2023-04-25T03:00:06;97522.31;;;9.92;78.66
15694;BME280;7947;48.834;9.132;2023-04-25T03:03:10;97514.91;;;9.84;78.70
15694;BME280;7947;48.834;9.132;2023-04-25T03:06:13;97526.75;;;9.78;78.21
15694;BME280;7947;48.834;9.132;2023-04-25T03:09:17;97520.81;;;9.81;78.27
15694;BME280;7947;48.834;9.132;2023-04-25T03:12:20;97512.84;;;9.76;78.13
15694;BME280;7947;48.834;9.132;2023-04-25T03:15:22;97512.25;;;9.79;78.42
15694;BME280;7947;48.834;9.132;2023-04-25T03:18:25;97500.94;;;9.87;77.04
15694;BME280;7947;48.834;9.132;2023-04-25T03:21:28;97500.59;;;9.94;76.16
15694;BME280;7947;48.834;9.132;2023-04-25T03:24:32;97506.81;;;9.89;76.45
15694;BME280;7947;48.834;9.132;2023-04-25T03:27:35;97501.84;;;9.78;77.23
15694;BME280;7947;48.834;9.132;2023-04-25T03:30:37;97513.44;;;9.73;77.88
15694;BME280;7947;48.834;9.132;2023-04-25T03:33:40;97501.94;;;9.68;78.24
15694;BME280;7947;48.834;9.132;2023-04-25T03:36:43;97507.88;;;9.65;79.10
15694;BME280;7947;48.834;9.132;2023-04-25T03:39:47;97512.50;;;9.59;79.38
15694;BME280;7947;48.834;9.132;2023-04-25T03:42:49;97506.41;;;9.54;79.64
15694;BME280;7947;48.834;9.132;2023-04-25T03:45:52;97508.50;;;9.57;79.56
15694;BME280;7947;48.834;9.132;2023-04-25T03:48:55;97502.47;;;9.70;78.18
15694;BME280;7947;48.834;9.132;2023-04-25T03:51:58;97501.09;;;9.72;77.95
15694;BME280;7947;48.834;9.132;2023-04-25T03:55:03;97500.81;;;9.74;77.40
15694;BME280;7947;48.834;9.132;2023-04-25T03:58:07;97502.66;;;9.78;77.09
15694;BME280;7947;48.834;9.132;2023-04-25T04:01:10;97499.75;;;9.75;76.75
15694;BME280;7947;48.834;9.132;2023-04-25T04:04:13;97498.13;;;9.74;76.82
15694;BME280;7947;48.834;9.132;2023-04-25T04:07:16;97500.66;;;9.65;77.25
15694;BME280;7947;48.834;9.132;2023-04-25T04:10:20;97505.72;;;9.67;77.21
15694;BME280;7947;48.834;9.132;2023-04-25T04:13:23;97507.38;;;9.63;77.80
15694;BME280;7947;48.834;9.132;2023-04-25T04:16:26;97502.53;;;9.65;77.90
15694;BME280;7947;48.834;9.132;2023-04-25T04:19:29;97509.75;;;9.64;78.12
15694;BME280;7947;48.834;9.132;2023-04-25T04:22:32;97515.69;;;9.61;77.92
15694;BME280;7947;48.834;9.132;2023-04-25T04:25:36;97507.16;;;9.54;77.76
15694;BME280;7947;48.834;9.132;2023-04-25T04:28:38;97514.81;;;9.42;77.52
15694;BME280;7947;48.834;9.132;2023-04-25T04:31:41;97514.56;;;9.39;78.07
15694;BME280;7947;48.834;9.132;2023-04-25T04:34:44;97511.84;;;9.44;78.44
15694;BME280;7947;48.834;9.132;2023-04-25T04:37:48;97523.28;;;9.49;78.22
15694;BME280;7947;48.834;9.132;2023-04-25T04:40:53;97531.03;;;9.51;78.63
15694;BME280;7947;48.834;9.132;2023-04-25T04:43:56;97529.09;;;9.56;78.34
15694;BME280;7947;48.834;9.132;2023-04-25T04:46:58;97528.31;;;9.56;78.40
15694;BME280;7947;48.834;9.132;2023-04-25T04:50:03;97527.84;;;9.49;78.48
15694;BME280;7947;48.834;9.132;2023-04-25T04:53:07;97523.28;;;9.49;78.85
15694;BME280;7947;48.834;9.132;2023-04-25T04:56:11;97529.38;;;9.55;79.02
15694;BME280;7947;48.834;9.132;2023-04-25T04:59:14;97543.81;;;9.59;78.97
15694;BME280;7947;48.834;9.132;2023-04-25T05:02:16;97542.69;;;9.65;78.61
15694;BME280;7947;48.834;9.132;2023-04-25T05:05:19;97541.09;;;9.64;78.11
15694;BME280;7947;48.834;9.132;2023-04-25T05:08:22;97547.81;;;9.61;78.40
15694;BME280;7947;48.834;9.132;2023-04-25T05:11:26;97547.19;;;9.69;77.86
15694;BME280;7947;48.834;9.132;2023-04-25T05:14:29;97542.31;;;9.76;77.59
15694;BME280;7947;48.834;9.132;2023-04-25T05:17:31;97540.97;;;9.74;77.49
15694;BME280;7947;48.834;9.132;2023-04-25T05:20:35;97540.88;;;9.84;78.06
15694;BME280;7947;48.834;9.132;2023-04-25T05:23:37;97543.44;;;9.94;78.11
15694;BME280;7947;48.834;9.132;2023-04-25T05:26:41;97548.50;;;9.95;77.14
15694;BME280;7947;48.834;9.132;2023-04-25T05:29:44;97548.81;;;9.94;78.14
15694;BME280;7947;48.834;9.132;2023-04-25T05:32:47;97544.94;;;10.05;78.53
15694;BME280;7947;48.834;9.132;2023-04-25T05:35:50;97544.41;;;10.03;78.29
15694;BME280;7947;48.834;9.132;2023-04-25T05:38:53;97548.19;;;10.02;78.60
15694;BME280;7947;48.834;9.132;2023-04-25T05:41:57;97562.72;;;9.96;79.57
15694;BME280;7947;48.834;9.132;2023-04-25T05:44:59;97551.81;;;9.87;79.66
15694;BME280;7947;48.834;9.132;2023-04-25T05:48:03;97555.53;;;9.91;80.24
15694;BME280;7947;48.834;9.132;2023-04-25T05:51:05;97551.50;;;9.94;80.56
15694;BME280;7947;48.834;9.132;2023-04-25T05:54:08;97553.72;;;9.87;81.02
15694;BME280;7947;48.834;9.132;2023-04-25T05:57:20;97547.78;;;9.90;80.17
15694;BME280;7947;48.834;9.132;2023-04-25T06:00:23;97548.41;;;9.82;80.29
15694;BME280;7947;48.834;9.132;2023-04-25T06:03:26;97551.69;;;9.74;80.97
15694;BME280;7947;48.834;9.132;2023-04-25T06:06:29;97561.38;;;9.70;82.06
15694;BME280;7947;48.834;9.132;2023-04-25T06:09:31;97552.56;;;9.69;82.44
15694;BME280;7947;48.834;9.132;2023-04-25T06:12:36;97558.13;;;9.73;82.33
15694;BME280;7947;48.834;9.132;2023-04-25T06:15:39;97558.81;;;9.83;81.63
15694;BME280;7947;48.834;9.132;2023-04-25T06:18:42;97549.44;;;9.86;81.31
15694;BME280;7947;48.834;9.132;2023-04-25T06:21:45;97555.81;;;9.90;81.34
15694;BME280;7947;48.834;9.132;2023-04-25T06:24:47;97547.38;;;10.01;81.23
15694;BME280;7947;48.834;9.132;2023-04-25T06:27:51;97545.34;;;10.17;81.98
15694;BME280;7947;48.834;9.132;2023-04-25T06:30:54;97544.44;;;10.27;79.56
15694;BME280;7947;48.834;9.132;2023-04-25T06:33:57;97537.72;;;10.29;78.63
15694;BME280;7947;48.834;9.132;2023-04-25T06:37:01;97536.50;;;10.40;77.59
15694;BME280;7947;48.834;9.132;2023-04-25T06:40:05;97537.75;;;10.48;76.41
15694;BME280;7947;48.834;9.132;2023-04-25T06:43:10;97539.84;;;10.51;77.87
15694;BME280;7947;48.834;9.132;2023-04-25T06:46:12;97544.84;;;10.57;78.23
15694;BME280;7947;48.834;9.132;2023-04-25T06:49:15;97545.34;;;10.59;76.51
15694;BME280;7947;48.834;9.132;2023-04-25T06:52:20;97545.16;;;10.56;77.44
15694;BME280;7947;48.834;9.132;2023-04-25T06:55:23;97554.13;;;10.46;77.50
15694;BME280;7947;48.834;9.132;2023-04-25T06:58:27;97547.44;;;10.44;77.08
15694;BME280;7947;48.834;9.132;2023-04-25T07:01:30;97554.34;;;10.50;77.11
15694;BME280;7947;48.834;9.132;2023-04-25T07:04:33;97546.81;;;10.52;75.98
15694;BME280;7947;48.834;9.132;2023-04-25T07:07:36;97548.75;;;10.46;76.43
15694;BME280;7947;48.834;9.132;2023-04-25T07:10:39;97555.19;;;10.45;76.86
15694;BME280;7947;48.834;9.132;2023-04-25T07:13:43;97554.03;;;10.51;77.68
15694;BME280;7947;48.834;9.132;2023-04-25T07:16:46;97556.47;;;10.53;78.52
15694;BME280;7947;48.834;9.132;2023-04-25T07:19:48;97553.25;;;10.51;78.11
15694;BME280;7947;48.834;9.132;2023-04-25T07:22:51;97554.19;;;10.41;76.40
15694;BME280;7947;48.834;9.132;2023-04-25T07:25:54;97560.53;;;10.27;75.80
15694;BME280;7947;48.834;9.132;2023-04-25T07:28:58;97567.03;;;10.21;76.89
15694;BME280;7947;48.834;9.132;2023-04-25T07:32:01;97572.16;;;10.17;78.18
15694;BME280;7947;48.834;9.132;2023-04-25T07:35:05;97571.13;;;10.13;78.62
15694;BME280;7947;48.834;9.132;2023-04-25T07:38:09;97577.44;;;10.22;79.09
15694;BME280;7947;48.834;9.132;2023-04-25T07:41:12;97568.97;;;10.15;78.59
15694;BME280;7947;48.834;9.132;2023-04-25T07:44:16;97572.59;;;10.24;77.61
15694;BME280;7947;48.834;9.132;2023-04-25T07:47:18;97577.00;;;10.15;78.26
15694;BME280;7947;48.834;9.132;2023-04-25T07:50:21;97583.47;;;10.09;78.45
15694;BME280;7947;48.834;9.132;2023-04-25T07:53:24;97584.00;;;10.11;79.70
15694;BME280;7947;48.834;9.132;2023-04-25T07:56:27;97590.19;;;10.07;80.41
15694;BME280;7947;48.834;9.132;2023-04-25T07:59:47;97589.78;;;10.23;79.45
15694;BME280;7947;48.834;9.132;2023-04-25T08:02:49;97587.72;;;10.39;77.88
15694;BME280;7947;48.834;9.132;2023-04-25T08:05:53;97591.13;;;10.44;78.27
15694;BME280;7947;48.834;9.132;2023-04-25T08:08:57;97598.88;;;10.46;77.96
15694;BME280;7947;48.834;9.132;2023-04-25T08:12:00;97605.47;;;10.53;78.41
15694;BME280;7947;48.834;9.132;2023-04-25T08:15:05;97605.34;;;10.45;78.73
15694;BME280;7947;48.834;9.132;2023-04-25T08:18:08;97611.63;;;10.35;79.64
15694;BME280;7947;48.834;9.132;2023-04-25T08:21:11;97614.41;;;10.25;80.43
15694;BME280;7947;48.834;9.132;2023-04-25T08:24:14;97626.25;;;10.19;81.91
15694;BME280;7947;48.834;9.132;2023-04-25T08:27:17;97626.06;;;10.11;83.14
15694;BME280;7947;48.834;9.132;2023-04-25T08:30:21;97627.06;;;10.20;83.90
15694;BME280;7947;48.834;9.132;2023-04-25T08:33:24;97632.94;;;10.22;84.69
15694;BME280;7947;48.834;9.132;2023-04-25T08:36:27;97630.72;;;10.29;84.35
15694;BME280;7947;48.834;9.132;2023-04-25T08:39:33;97633.56;;;10.37;84.07
15694;BME280;7947;48.834;9.132;2023-04-25T08:42:37;97640.13;;;10.50;84.16
15694;BME280;7947;48.834;9.132;2023-04-25T08:45:42;97638.75;;;10.52;83.58
15694;BME280;7947;48.834;9.132;2023-04-25T08:48:45;97652.09;;;10.57;82.45
15694;BME280;7947;48.834;9.132;2023-04-25T08:51:49;97650.03;;;10.49;81.05
15694;BME280;7947;48.834;9.132;2023-04-25T08:54:54;97658.66;;;10.46;80.83
15694;BME280;7947;48.834;9.132;2023-04-25T08:57:57;97656.81;;;10.42;81.30
15694;BME280;7947;48.834;9.132;2023-04-25T09:01:03;97664.94;;;10.37;82.41
15694;BME280;7947;48.834;9.132;2023-04-25T09:04:06;97664.31;;;10.45;81.94
15694;BME280;7947;48.834;9.132;2023-04-25T09:07:09;97668.69;;;10.36;82.48
15694;BME280;7947;48.834;9.132;2023-04-25T09:10:13;97670.81;;;10.39;81.66
15694;BME280;7947;48.834;9.132;2023-04-25T09:13:24;97670.56;;;10.35;82.30
15694;BME280;7947;48.834;9.132;2023-04-25T09:16:29;97686.19;;;10.28;80.96
15694;BME280;7947;48.834;9.132;2023-04-25T09:19:35;97683.88;;;10.17;83.29
15694;BME280;7947;48.834;9.132;2023-04-25T09:22:45;97690.50;;;10.24;84.14
15694;BME280;7947;48.834;9.132;2023-04-25T09:25:48;97689.88;;;10.32;83.10
15694;BME280;7947;48.834;9.132;2023-04-25T09:29:04;97702.47;;;10.32;83.71
15694;BME280;7947;48.834;9.132;2023-04-25T09:32:19;97710.25;;;10.33;84.13
15694;BME280;7947;48.834;9.132;2023-04-25T09:35:24;97712.44;;;10.31;84.35
15694;BME280;7947;48.834;9.132;2023-04-25T09:38:30;97710.28;;;10.28;84.62
15694;BME280;7947;48.834;9.132;2023-04-25T09:41:37;97723.16;;;10.31;84.24
15694;BME280;7947;48.834;9.132;2023-04-25T09:44:42;97728.50;;;10.31;84.51
15694;BME280;7947;48.834;9.132;2023-04-25T09:47:47;97729.28;;;10.32;83.44
15694;BME280;7947;48.834;9.132;2023-04-25T09:51:04;97737.44;;;10.22;84.62
15694;BME280;7947;48.834;9.132;2023-04-25T09:54:07;97742.00;;;10.21;84.85
15694;BME280;7947;48.834;9.132;2023-04-25T09:57:14;97747.16;;;10.13;81.93
15694;BME280;7947;48.834;9.132;2023-04-25T10:00:18;97752.81;;;10.06;81.22
15694;BME280;7947;48.834;9.132;2023-04-25T10:03:25;97758.78;;;9.93;80.97
15694;BME280;7947;48.834;9.132;2023-04-25T10:06:29;97764.25;;;9.83;82.36
15694;BME280;7947;48.834;9.132;2023-04-25T10:09:33;97775.00;;;9.73;83.75
15694;BME280;7947;48.834;9.132;2023-04-25T10:12:39;97776.13;;;9.67;83.82
15694;BME280;7947;48.834;9.132;2023-04-25T10:15:45;97783.38;;;9.56;83.68
15694;BME280;7947;48.834;9.132;2023-04-25T10:18:51;97790.69;;;9.46;83.99
15694;BME280;7947;48.834;9.132;2023-04-25T10:21:58;97787.81;;;9.27;84.06
15694;BME280;7947;48.834;9.132;2023-04-25T10:25:06;97801.78;;;9.19;85.16
15694;BME280;7947;48.834;9.132;2023-04-25T10:28:10;97804.72;;;9.18;86.05
15694;BME280;7947;48.834;9.132;2023-04-25T10:31:15;97808.47;;;9.17;83.33
15694;BME280;7947;48.834;9.132;2023-04-25T10:34:24;97807.38;;;9.18;84.39
15694;BME280;7947;48.834;9.132;2023-04-25T10:37:29;97812.47;;;9.24;84.58
15694;BME280;7947;48.834;9.132;2023-04-25T10:40:33;97815.72;;;9.11;84.67
15694;BME280;7947;48.834;9.132;2023-04-25T10:43:37;97820.22;;;9.16;85.88
15694;BME280;7947;48.834;9.132;2023-04-25T10:46:41;97825.06;;;9.19;86.16
15694;BME280;7947;48.834;9.132;2023-04-25T10:49:45;97827.16;;;9.22;86.30
15694;BME280;7947;48.834;9.132;2023-04-25T10:52:53;97826.63;;;9.25;85.59
15694;BME280;7947;48.834;9.132;2023-04-25T10:55:56;97835.19;;;9.27;86.23
15694;BME280;7947;48.834;9.132;2023-04-25T10:59:07;97831.16;;;9.34;86.73
15694;BME280;7947;48.834;9.132;2023-04-25T11:02:11;97835.69;;;9.39;85.01
15694;BME280;7947;48.834;9.132;2023-04-25T11:05:20;97841.03;;;9.34;85.37
15694;BME280;7947;48.834;9.132;2023-04-25T11:08:35;97834.09;;;9.33;85.64
15694;BME280;7947;48.834;9.132;2023-04-25T11:11:41;97838.31;;;9.49;85.42
15694;BME280;7947;48.834;9.132;2023-04-25T11:14:44;97846.06;;;9.50;84.99
15694;BME280;7947;48.834;9.132;2023-04-25T11:17:47;97845.81;;;9.47;83.79
15694;BME280;7947;48.834;9.132;2023-04-25T11:20:51;97847.94;;;9.50;82.98
15694;BME280;7947;48.834;9.132;2023-04-25T11:23:56;97847.63;;;9.56;83.40
15694;BME280;7947;48.834;9.132;2023-04-25T11:26:59;97846.53;;;9.67;82.27
15694;BME280;7947;48.834;9.132;2023-04-25T11:30:11;97843.81;;;9.72;81.71
15694;BME280;7947;48.834;9.132;2023-04-25T11:33:14;97852.09;;;9.81;80.96
15694;BME280;7947;48.834;9.132;2023-04-25T11:36:19;97856.06;;;9.83;81.92
15694;BME280;7947;48.834;9.132;2023-04-25T11:39:23;97855.06;;;9.74;81.93
15694;BME280;7947;48.834;9.132;2023-04-25T11:42:26;97857.69;;;9.79;82.25
15694;BME280;7947;48.834;9.132;2023-04-25T11:45:29;97860.97;;;9.71;82.37
15694;BME280;7947;48.834;9.132;2023-04-25T11:48:37;97859.06;;;9.72;82.67
15694;BME280;7947;48.834;9.132;2023-04-25T11:51:42;97853.44;;;9.78;82.57
15694;BME280;7947;48.834;9.132;2023-04-25T11:54:45;97865.44;;;9.86;83.04
15694;BME280;7947;48.834;9.132;2023-04-25T11:57:49;97860.56;;;9.93;82.05
15694;BME280;7947;48.834;9.132;2023-04-25T12:00:52;97873.41;;;9.96;82.98
15694;BME280;7947;48.834;9.132;2023-04-25T12:03:55;97873.13;;;10.02;81.33
15694;BME280;7947;48.834;9.132;2023-04-25T12:07:00;97869.13;;;10.00;80.47
15694;BME280;7947;48.834;9.132;2023-04-25T12:10:05;97869.97;;;9.90;81.51
15694;BME280;7947;48.834;9.132;2023-04-25T12:13:20;97879.91;;;9.85;82.00
15694;BME280;7947;48.834;9.132;2023-04-25T12:16:23;97879.97;;;9.75;83.17
15694;BME280;7947;48.834;9.132;2023-04-25T12:19:27;97881.25;;;9.82;83.71
15694;BME280;7947;48.834;9.132;2023-04-25T12:22:35;97877.75;;;9.87;82.98
15694;BME280;7947;48.834;9.132;2023-04-25T12:25:40;97875.09;;;9.82;82.85
15694;BME280;7947;48.834;9.132;2023-04-25T12:28:45;97883.84;;;10.02;82.93
15694;BME280;7947;48.834;9.132;2023-04-25T12:31:49;97881.09;;;10.13;82.43
15694;BME280;7947;48.834;9.132;2023-04-25T12:34:53;97884.50;;;10.28;81.19
15694;BME280;7947;48.834;9.132;2023-04-25T12:37:57;97881.91;;;10.52;80.33
15694;BME280;7947;48.834;9.132;2023-04-25T12:41:00;97883.06;;;10.74;80.32
15694;BME280;7947;48.834;9.132;2023-04-25T12:44:03;97881.16;;;11.09;79.46
15694;BME280;7947;48.834;9.132;2023-04-25T12:47:06;97885.78;;;11.27;78.16
15694;BME280;7947;48.834;9.132;2023-04-25T12:50:10;97876.88;;;11.55;80.21
15694;BME280;7947;48.834;9.132;2023-04-25T12:53:14;97873.53;;;11.68;76.67
15694;BME280;7947;48.834;9.132;2023-04-25T12:56:17;97884.00;;;11.64;76.21
15694;BME280;7947;48.834;9.132;2023-04-25T12:59:24;97880.13;;;11.52;73.37
15694;BME280;7947;48.834;9.132;2023-04-25T13:02:26;97887.84;;;11.35;75.19
15694;BME280;7947;48.834;9.132;2023-04-25T13:05:30;97884.81;;;11.18;75.81
15694;BME280;7947;48.834;9.132;2023-04-25T13:08:34;97892.03;;;11.17;76.64
15694;BME280;7947;48.834;9.132;2023-04-25T13:11:38;97885.50;;;11.28;76.19
15694;BME280;7947;48.834;9.132;2023-04-25T13:14:41;97890.22;;;11.36;76.51
15694;BME280;7947;48.834;9.132;2023-04-25T13:17:45;97887.94;;;11.48;78.59
15694;BME280;7947;48.834;9.132;2023-04-25T13:20:48;97885.97;;;11.59;74.33
15694;BME280;7947;48.834;9.132;2023-04-25T13:23:52;97883.22;;;11.64;73.76
15694;BME280;7947;48.834;9.132;2023-04-25T13:26:55;97889.28;;;11.51;75.05
15694;BME280;7947;48.834;9.132;2023-04-25T13:29:58;97886.69;;;11.41;77.86
15694;BME280;7947;48.834;9.132;2023-04-25T13:33:01;97894.59;;;11.32;76.75
15694;BME280;7947;48.834;9.132;2023-04-25T13:36:05;97891.13;;;11.27;78.40
15694;BME280;7947;48.834;9.132;2023-04-25T13:39:09;97896.50;;;11.27;76.83
15694;BME280;7947;48.834;9.132;2023-04-25T13:42:13;97899.72;;;11.29;76.45
15694;BME280;7947;48.834;9.132;2023-04-25T13:45:17;97903.31;;;11.43;75.99
15694;BME280;7947;48.834;9.132;2023-04-25T13:48:20;97899.00;;;11.47;75.07
15694;BME280;7947;48.834;9.132;2023-04-25T13:51:24;97899.72;;;11.52;75.62
15694;BME280;7947;48.834;9.132;2023-04-25T13:54:29;97901.59;;;11.52;74.47
15694;BME280;7947;48.834;9.132;2023-04-25T13:57:32;97901.75;;;11.65;75.81
15694;BME280;7947;48.834;9.132;2023-04-25T14:00:36;97899.25;;;11.74;76.45
15694;BME280;7947;48.834;9.132;2023-04-25T14:03:40;97895.31;;;11.85;76.76
15694;BME280;7947;48.834;9.132;2023-04-25T14:06:43;97900.50;;;12.00;73.90
15694;BME280;7947;48.834;9.132;2023-04-25T14:09:47;97896.91;;;12.10;73.79
15694;BME280;7947;48.834;9.132;2023-04-25T14:12:51;97900.00;;;12.35;73.98
15694;BME280;7947;48.834;9.132;2023-04-25T14:15:53;97894.69;;;12.49;71.34
15694;BME280;7947;48.834;9.132;2023-04-25T14:18:57;97899.06;;;12.63;71.66
15694;BME280;7947;48.834;9.132;2023-04-25T14:22:00;97891.50;;;12.65;69.24
15694;BME280;7947;48.834;9.132;2023-04-25T14:25:08;97899.06;;;12.63;68.88
15694;BME280;7947;48.834;9.132;2023-04-25T14:28:11;97892.66;;;12.59;68.76
15694;BME280;7947;48.834;9.132;2023-04-25T14:31:14;97900.56;;;12.69;70.48
15694;BME280;7947;48.834;9.132;2023-04-25T14:34:17;97903.56;;;13.00;68.00
15694;BME280;7947;48.834;9.132;2023-04-25T14:37:20;97903.19;;;13.07;66.34
15694;BME280;7947;48.834;9.132;2023-04-25T14:40:25;97904.13;;;12.97;65.46
15694;BME280;7947;48.834;9.132;2023-04-25T14:43:28;97907.28;;;13.04;67.14
15694;BME280;7947;48.834;9.132;2023-04-25T14:46:31;97908.56;;;13.07;65.83
15694;BME280;7947;48.834;9.132;2023-04-25T14:49:34;97913.47;;;12.86;65.74
15694;BME280;7947;48.834;9.132;2023-04-25T14:52:37;97911.34;;;12.69;65.06
15694;BME280;7947;48.834;9.132;2023-04-25T14:55:41;97908.03;;;12.73;68.19
15694;BME280;7947;48.834;9.132;2023-04-25T14:58:44;97911.16;;;12.80;67.17
15694;BME280;7947;48.834;9.132;2023-04-25T15:01:47;97919.22;;;12.80;67.88
15694;BME280;7947;48.834;9.132;2023-04-25T15:04:50;97915.31;;;12.72;66.47
15694;BME280;7947;48.834;9.132;2023-04-25T15:07:53;97918.16;;;12.62;67.09
15694;BME280;7947;48.834;9.132;2023-04-25T15:10:58;97908.25;;;12.76;68.20
15694;BME280;7947;48.834;9.132;2023-04-25T15:14:01;97904.91;;;13.16;67.14
15694;BME280;7947;48.834;9.132;2023-04-25T15:17:04;97914.84;;;13.62;64.74
15694;BME280;7947;48.834;9.132;2023-04-25T15:20:08;97915.03;;;13.79;64.17
15694;BME280;7947;48.834;9.132;2023-04-25T15:23:11;97912.25;;;13.70;62.54
15694;BME280;7947;48.834;9.132;2023-04-25T15:26:15;97914.25;;;13.51;61.35
15694;BME280;7947;48.834;9.132;2023-04-25T15:29:18;97918.38;;;13.30;63.28
15694;BME280;7947;48.834;9.132;2023-04-25T15:32:21;97920.97;;;13.21;63.31
15694;BME280;7947;48.834;9.132;2023-04-25T15:35:25;97921.47;;;13.10;64.19
15694;BME280;7947;48.834;9.132;2023-04-25T15:38:28;97919.28;;;12.93;65.44
15694;BME280;7947;48.834;9.132;2023-04-25T15:41:32;97924.53;;;12.85;67.14
15694;BME280;7947;48.834;9.132;2023-04-25T15:44:35;97929.22;;;12.60;67.10
15694;BME280;7947;48.834;9.132;2023-04-25T15:47:38;97930.22;;;12.64;65.94
15694;BME280;7947;48.834;9.132;2023-04-25T15:50:41;97927.94;;;12.58;66.69
15694;BME280;7947;48.834;9.132;2023-04-25T15:53:44;97938.59;;;12.63;66.84
15694;BME280;7947;48.834;9.132;2023-04-25T15:56:49;97930.59;;;12.77;66.15
15694;BME280;7947;48.834;9.132;2023-04-25T15:59:52;97929.97;;;12.80;64.91
15694;BME280;7947;48.834;9.132;2023-04-25T16:02:54;97930.16;;;12.69;65.82
15694;BME280;7947;48.834;9.132;2023-04-25T16:05:57;97934.97;;;12.54;66.56
15694;BME280;7947;48.834;9.132;2023-04-25T16:09:00;97937.88;;;12.39;65.97
15694;BME280;7947;48.834;9.132;2023-04-25T16:12:05;97929.50;;;12.22;65.73
15694;BME280;7947;48.834;9.132;2023-04-25T16:15:09;97935.69;;;12.04;65.92
15694;BME280;7947;48.834;9.132;2023-04-25T16:18:12;97929.53;;;11.98;66.91
15694;BME280;7947;48.834;9.132;2023-04-25T16:21:15;97932.19;;;12.03;67.28
15694;BME280;7947;48.834;9.132;2023-04-25T16:24:17;97930.81;;;12.06;68.06
15694;BME280;7947;48.834;9.132;2023-04-25T16:27:21;97944.34;;;12.19;66.11
15694;BME280;7947;48.834;9.132;2023-04-25T16:30:24;97941.41;;;12.16;65.75
15694;BME280;7947;48.834;9.132;2023-04-25T16:33:27;97938.28;;;12.09;66.30